createdAt,value
2018-12-12T00:00:09.771Z,101481
2018-12-12T00:05:32.474Z,101489
2018-12-12T00:10:55.173Z,101487
2018-12-12T00:16:18.046Z,101493
2018-12-12T00:21:41.592Z,101495
2018-12-12T00:27:05.966Z,101497
2018-12-12T00:32:29.011Z,101490
2018-12-12T00:37:51.971Z,101497
2018-12-12T00:43:19.519Z,101501
2018-12-12T00:48:44.534Z,101514
2018-12-12T00:54:16.840Z,101506
2018-12-12T00:59:40.899Z,101501
2018-12-12T01:05:03.739Z,101499
2018-12-12T01:10:29.146Z,101495
2018-12-12T01:15:53.607Z,101494
2018-12-12T01:21:17.290Z,101501
2018-12-12T01:26:41.633Z,101502
2018-12-12T01:32:08.228Z,101495
2018-12-12T01:37:34.207Z,101506
2018-12-12T01:43:01.189Z,101514
2018-12-12T01:48:26.404Z,101518
2018-12-12T01:53:49.062Z,101514
2018-12-12T01:59:11.755Z,101517
2018-12-12T02:04:34.399Z,101515
2018-12-12T02:09:57.342Z,101517
2018-12-12T02:15:21.414Z,101521
2018-12-12T02:20:45.794Z,101521
2018-12-12T02:26:09.962Z,101531
2018-12-12T02:31:34.042Z,101544
2018-12-12T02:36:57.576Z,101551
2018-12-12T02:42:21.253Z,101553
2018-12-12T02:47:44.142Z,101548
2018-12-12T02:53:08.091Z,101539
2018-12-12T02:58:33.160Z,101539
2018-12-12T03:03:58.066Z,101542
2018-12-12T03:09:21.816Z,101545
2018-12-12T03:14:45.688Z,101555
2018-12-12T03:20:08.584Z,101563
2018-12-12T03:25:31.275Z,101567
2018-12-12T03:30:54.385Z,101565
2018-12-12T03:36:17.557Z,101570
2018-12-12T03:41:41.232Z,101564
2018-12-12T03:47:05.252Z,101568
2018-12-12T03:52:29.179Z,101569
2018-12-12T03:57:52.839Z,101570
2018-12-12T04:03:15.691Z,101575
2018-12-12T04:08:39.242Z,101580
2018-12-12T04:14:02.083Z,101580
2018-12-12T04:19:24.875Z,101583
2018-12-12T04:24:47.631Z,101582
2018-12-12T04:30:10.327Z,101582
2018-12-12T04:35:34.068Z,101583
2018-12-12T04:40:57.888Z,101579
2018-12-12T04:46:22.465Z,101581
2018-12-12T04:51:45.964Z,101585
2018-12-12T04:57:08.871Z,101585
2018-12-12T05:02:31.566Z,101585
2018-12-12T05:07:55.511Z,101588
2018-12-12T05:13:19.638Z,101589
2018-12-12T05:18:43.245Z,101597
2018-12-12T05:24:06.252Z,101605
2018-12-12T05:29:39.799Z,101608
2018-12-12T05:35:05.482Z,101615
2018-12-12T05:40:29.201Z,101616
2018-12-12T05:45:56.448Z,101611
2018-12-12T05:51:19.521Z,101611
2018-12-12T05:56:43.682Z,101612
2018-12-12T06:02:08.266Z,101611
2018-12-12T06:07:31.919Z,101621
2018-12-12T06:12:54.760Z,101627
2018-12-12T06:18:17.424Z,101628
2018-12-12T06:23:40.156Z,101631
2018-12-12T06:29:02.854Z,101632
2018-12-12T06:34:25.627Z,101634
2018-12-12T06:39:48.283Z,101633
2018-12-12T06:45:10.889Z,101636
2018-12-12T06:50:33.906Z,101636
2018-12-12T06:55:57.007Z,101642
2018-12-12T07:01:20.144Z,101642
2018-12-12T07:06:42.981Z,101652
2018-12-12T07:12:05.700Z,101648
2018-12-12T07:17:28.468Z,101647
2018-12-12T07:22:51.476Z,101651
2018-12-12T07:28:14.279Z,101659
2018-12-12T07:33:37.253Z,101660
2018-12-12T07:39:00.357Z,101659
2018-12-12T07:44:23.150Z,101657
2018-12-12T07:49:46.011Z,101661
2018-12-12T07:55:08.247Z,101672
2018-12-12T08:00:31.172Z,101681
2018-12-12T08:05:54.166Z,101691
2018-12-12T08:11:16.818Z,101688
2018-12-12T08:16:39.655Z,101686
2018-12-12T08:22:02.271Z,101694
2018-12-12T08:27:25.525Z,101700
2018-12-12T08:32:48.925Z,101711
2018-12-12T08:38:11.715Z,101702
2018-12-12T08:43:34.443Z,101708
2018-12-12T08:48:57.186Z,101699
2018-12-12T08:54:20.177Z,101701
2018-12-12T08:59:41.870Z,101704
2018-12-12T09:05:04.483Z,101711
2018-12-12T09:10:27.132Z,101717
2018-12-12T09:15:50.751Z,101718
2018-12-12T09:21:13.627Z,101722
2018-12-12T09:26:36.419Z,101729
2018-12-12T09:31:59.276Z,101726
2018-12-12T09:37:21.913Z,101743
2018-12-12T09:42:44.648Z,101736
2018-12-12T09:48:07.402Z,101738
2018-12-12T09:53:30.158Z,101745
2018-12-12T09:58:52.938Z,101738
2018-12-12T10:04:16.244Z,101735
2018-12-12T10:09:39.782Z,101734
2018-12-12T10:15:02.637Z,101722
2018-12-12T10:20:25.433Z,101727
2018-12-12T10:25:48.135Z,101731
2018-12-12T10:31:11.026Z,101725
2018-12-12T10:36:34.085Z,101719
2018-12-12T10:41:57.090Z,101719
2018-12-12T10:47:20.736Z,101714
2018-12-12T10:52:43.569Z,101715
2018-12-12T10:58:06.460Z,101702
2018-12-12T11:03:30.174Z,101707
2018-12-12T11:08:52.871Z,101706
2018-12-12T11:14:16.319Z,101705
2018-12-12T11:19:39.259Z,101702
2018-12-12T11:25:02.348Z,101707
2018-12-12T11:30:24.945Z,101702
2018-12-12T11:35:47.665Z,101702
2018-12-12T11:41:13.878Z,101704
2018-12-12T11:46:36.918Z,101703
2018-12-12T11:52:00.623Z,101704
2018-12-12T11:57:23.314Z,101698
2018-12-12T12:02:46.164Z,101697
2018-12-12T12:08:09.847Z,101696
2018-12-12T12:13:33.245Z,101688
2018-12-12T12:18:56.289Z,101692
2018-12-12T12:24:18.882Z,101687
2018-12-12T12:29:42.476Z,101689
2018-12-12T12:35:06.319Z,101678
2018-12-12T12:40:30.147Z,101678
2018-12-12T12:45:53.564Z,101681
2018-12-12T12:51:16.831Z,101670
2018-12-12T12:56:40.649Z,101655
2018-12-12T13:02:12.112Z,101648
2018-12-12T13:07:35.348Z,101642
2018-12-12T13:13:05.167Z,101637
2018-12-12T13:18:31.289Z,101644
2018-12-12T13:23:55.466Z,101637
2018-12-12T13:29:18.734Z,101631
2018-12-12T13:34:42.669Z,101640
2018-12-12T13:40:05.447Z,101642
2018-12-12T13:45:28.229Z,101639
2018-12-12T13:50:51.909Z,101631
2018-12-12T13:56:14.536Z,101626
2018-12-12T14:01:37.988Z,101627
2018-12-12T14:07:01.886Z,101620
2018-12-12T14:12:25.218Z,101622
2018-12-12T14:17:49.628Z,101618
2018-12-12T14:23:13.688Z,101617
2018-12-12T14:28:37.282Z,101611
2018-12-12T14:34:00.941Z,101601
2018-12-12T14:39:23.633Z,101605
2018-12-12T14:44:46.397Z,101600
2018-12-12T14:50:09.909Z,101601
2018-12-12T14:55:32.832Z,101607
2018-12-12T15:00:55.497Z,101612
2018-12-12T15:06:24.339Z,101622
2018-12-12T15:11:56.829Z,101629
2018-12-12T15:17:26.476Z,101635
2018-12-12T15:22:49.121Z,101636
2018-12-12T15:28:11.752Z,101648
2018-12-12T15:33:34.475Z,101641
2018-12-12T15:38:57.294Z,101639
2018-12-12T15:44:20.176Z,101643
2018-12-12T15:49:43.015Z,101642
2018-12-12T15:55:05.974Z,101649
2018-12-12T16:00:28.741Z,101647
2018-12-12T16:05:52.487Z,101648
2018-12-12T16:11:15.275Z,101644
2018-12-12T16:16:46.802Z,101650
2018-12-12T16:22:13.588Z,101645
2018-12-12T16:27:36.286Z,101639
2018-12-12T16:33:00.176Z,101637
2018-12-12T16:38:22.312Z,101643
2018-12-12T16:43:45.113Z,101649
2018-12-12T16:49:07.872Z,101650
2018-12-12T16:54:31.466Z,101650
2018-12-12T16:59:54.781Z,101653
2018-12-12T17:05:17.944Z,101651
2018-12-12T17:10:40.612Z,101641
2018-12-12T17:16:04.005Z,101640
2018-12-12T17:21:26.716Z,101637
2018-12-12T17:26:49.372Z,101642
2018-12-12T17:32:42.856Z,101633
2018-12-12T17:38:05.741Z,101640
2018-12-12T17:43:28.429Z,101645
2018-12-12T17:48:51.216Z,101647
2018-12-12T17:54:14.083Z,101638
2018-12-12T17:59:37.225Z,101635
2018-12-12T18:05:00.301Z,101641
2018-12-12T18:10:22.888Z,101645
2018-12-12T18:15:45.823Z,101639
2018-12-12T18:21:10.886Z,101645
2018-12-12T18:26:43.363Z,101644
2018-12-12T18:32:06.151Z,101632
2018-12-12T18:37:28.912Z,101630
2018-12-12T18:42:57.731Z,101636
2018-12-12T18:48:21.833Z,101637
2018-12-12T18:54:21.881Z,101643
2018-12-12T18:59:47.324Z,101641
2018-12-12T19:05:10.830Z,101640
2018-12-12T19:10:36.146Z,101638
2018-12-12T19:16:10.404Z,101640
2018-12-12T19:21:45.977Z,101639
2018-12-12T19:27:22.689Z,101640
2018-12-12T19:32:58.855Z,101651
2018-12-12T19:38:32.339Z,101641
2018-12-12T19:43:55.684Z,101643
2018-12-12T19:49:19.505Z,101646
2018-12-12T19:54:57.215Z,101640
2018-12-12T20:00:22.651Z,101639
2018-12-12T20:05:47.296Z,101632
2018-12-12T20:11:10.761Z,101632
2018-12-12T20:16:42.936Z,101636
2018-12-12T20:22:36.919Z,101645
2018-12-12T20:28:30.278Z,101638
2018-12-12T20:33:53.269Z,101640
2018-12-12T20:39:16.350Z,101638
2018-12-12T20:44:39.311Z,101646
2018-12-12T20:50:04.489Z,101645
2018-12-12T20:55:31.993Z,101644
2018-12-12T21:00:54.986Z,101644
2018-12-12T21:06:17.914Z,101639
2018-12-12T21:11:41.008Z,101638
2018-12-12T21:17:03.881Z,101640
2018-12-12T21:22:27.642Z,101631
2018-12-12T21:27:50.613Z,101627
2018-12-12T21:33:12.797Z,101634
2018-12-12T21:38:35.604Z,101636
2018-12-12T21:44:05.986Z,101626
2018-12-12T21:49:30.217Z,101621
2018-12-12T21:55:03.371Z,101612
2018-12-12T22:00:27.138Z,101609
2018-12-12T22:05:49.986Z,101612
2018-12-12T22:11:13.189Z,101610
2018-12-12T22:16:35.973Z,101611
2018-12-12T22:21:59.006Z,101609
2018-12-12T22:27:21.782Z,101614
2018-12-12T22:32:44.582Z,101606
2018-12-12T22:38:07.276Z,101611
2018-12-12T22:43:29.963Z,101603
2018-12-12T23:10:36.086Z,101599
